Time;durP1;ratioP1;P1;durP2;ratioP2;P2;SDS_P1;SDS_P2;PMS_P1;PMS_P2;Temp;Humidity;BMP_temperature;BMP_pressure;BME280_temperature;BME280_humidity;BME280_pressure;Samples;Min_cycle;Max_cycle;Signal;HPM_P1;HPM_P2
2023/10/31 04:04:44;;;;;;;0.30;0.20;;;10.30;99.90;;;;;;6180351;23;20437;31
2023/10/31 04:07:10;;;;;;;0.30;0.30;;;10.30;99.90;;;;;;4990466;28;20228;-64
2023/10/31 04:09:36;;;;;;;0.30;0.30;;;10.30;99.90;;;;;;4993966;28;20392;-64
2023/10/31 04:12:01;;;;;;;0.30;0.20;;;10.30;99.90;;;;;;4994126;28;20414;-65
2023/10/31 04:14:27;;;;;;;0.50;0.50;;;10.30;99.90;;;;;;4993417;28;20634;-65
2023/10/31 04:16:52;;;;;;;0.30;0.30;;;10.20;99.90;;;;;;4993108;28;20204;-64
2023/10/31 04:19:18;;;;;;;0.30;0.30;;;10.30;99.90;;;;;;4994276;28;20179;-63
2023/10/31 04:21:44;;;;;;;0.30;0.30;;;10.20;99.90;;;;;;4993717;28;20180;-65
2023/10/31 04:24:09;;;;;;;0.30;0.30;;;10.20;99.90;;;;;;4994186;28;20188;-65
2023/10/31 04:26:35;;;;;;;0.30;0.30;;;10.20;99.90;;;;;;4994287;28;20196;-64
2023/10/31 04:29:00;;;;;;;0.30;0.30;;;10.20;99.90;;;;;;4993758;28;20215;-65
2023/10/31 04:31:26;;;;;;;0.30;0.30;;;10.20;99.90;;;;;;4994035;28;20230;-64
2023/10/31 04:33:51;;;;;;;0.30;0.30;;;10.20;99.90;;;;;;4994140;28;20518;-63
2023/10/31 04:36:17;;;;;;;0.30;0.20;;;10.20;99.90;;;;;;4993041;28;20222;-64
2023/10/31 04:38:42;;;;;;;0.30;0.30;;;10.20;99.90;;;;;;4993837;28;20186;-64
2023/10/31 04:41:09;;;;;;;0.30;0.30;;;10.30;99.90;;;;;;4994541;28;20177;-64
2023/10/31 04:43:35;;;;;;;0.30;0.20;;;10.30;99.90;;;;;;4994338;28;20170;-64
2023/10/31 04:46:00;;;;;;;0.30;0.30;;;10.40;99.90;;;;;;4993582;28;20665;-65
2023/10/31 04:48:26;;;;;;;0.30;0.30;;;10.40;99.90;;;;;;4992788;28;20176;-63
2023/10/31 04:50:52;;;;;;;0.40;0.40;;;10.40;99.90;;;;;;4994148;28;20205;-65
2023/10/31 04:53:17;;;;;;;0.30;0.30;;;10.40;99.90;;;;;;4994474;28;20198;-63
2023/10/31 04:55:43;;;;;;;0.30;0.30;;;10.40;99.90;;;;;;4993717;28;20194;-64
2023/10/31 04:58:08;;;;;;;0.30;0.30;;;10.40;99.90;;;;;;4993969;28;20648;-63
2023/10/31 05:00:34;;;;;;;0.30;0.27;;;10.40;99.90;;;;;;4993401;28;20176;-64
2023/10/31 05:03:01;;;;;;;0.30;0.20;;;10.40;99.90;;;;;;4993979;28;20168;-65
2023/10/31 05:05:27;;;;;;;0.30;0.30;;;10.40;99.90;;;;;;4993219;28;20219;-64
2023/10/31 05:07:52;;;;;;;0.30;0.30;;;10.40;99.90;;;;;;4993936;28;20242;-64
2023/10/31 05:10:18;;;;;;;0.30;0.30;;;10.30;99.90;;;;;;4993104;28;20534;-64
2023/10/31 05:12:44;;;;;;;0.30;0.20;;;10.30;99.90;;;;;;4992595;28;20188;-62
2023/10/31 05:15:10;;;;;;;0.40;0.40;;;10.30;99.90;;;;;;4993342;28;20196;-65
2023/10/31 05:17:36;;;;;;;0.30;0.30;;;10.30;99.90;;;;;;4993828;28;20550;-64
2023/10/31 05:20:02;;;;;;;0.30;0.30;;;10.30;99.90;;;;;;4993183;28;20263;-64
2023/10/31 05:22:27;;;;;;;0.30;0.30;;;10.30;99.90;;;;;;4993644;28;20190;-65
2023/10/31 05:24:53;;;;;;;0.30;0.30;;;10.20;99.90;;;;;;4992990;28;20604;-64
2023/10/31 05:27:19;;;;;;;0.30;0.30;;;10.20;99.90;;;;;;4964025;28;20200;-64
2023/10/31 05:29:45;;;;;;;0.30;0.20;;;10.20;99.90;;;;;;4996627;28;20561;-63
2023/10/31 05:32:10;;;;;;;0.30;0.20;;;10.10;99.90;;;;;;4996825;28;20676;-63
2023/10/31 05:34:36;;;;;;;0.30;0.30;;;10.10;99.90;;;;;;4997051;28;20497;-63
2023/10/31 05:37:02;;;;;;;0.30;0.20;;;10.10;99.90;;;;;;4979905;28;20172;-65
2023/10/31 05:39:27;;;;;;;0.30;0.30;;;10.10;99.90;;;;;;4980033;28;20176;-64
2023/10/31 05:41:53;;;;;;;0.30;0.30;;;10.00;99.90;;;;;;4997061;28;20424;-64
2023/10/31 05:44:18;;;;;;;0.30;0.20;;;10.00;99.90;;;;;;4997722;28;20639;-65
2023/10/31 05:46:44;;;;;;;0.30;0.30;;;9.90;99.90;;;;;;4998052;28;20219;-64
2023/10/31 05:49:10;;;;;;;0.30;0.30;;;9.90;99.90;;;;;;4997404;28;20272;-63
2023/10/31 05:51:36;;;;;;;0.30;0.20;;;9.90;99.90;;;;;;4997624;28;20176;-64
2023/10/31 05:54:02;;;;;;;0.30;0.30;;;9.90;99.90;;;;;;4997503;28;20410;-63
2023/10/31 05:56:27;;;;;;;0.30;0.30;;;9.80;99.90;;;;;;4997990;28;20204;-65
2023/10/31 05:58:53;;;;;;;0.30;0.30;;;9.80;99.90;;;;;;4997495;28;20414;-63
2023/10/31 06:01:18;;;;;;;0.30;0.20;;;9.80;99.90;;;;;;4996131;28;20181;-63
2023/10/31 06:03:44;;;;;;;0.30;0.30;;;9.80;99.90;;;;;;4996688;28;20191;-63
2023/10/31 06:06:11;;;;;;;0.30;0.30;;;9.80;99.90;;;;;;4963010;28;20220;-63
2023/10/31 06:08:37;;;;;;;0.30;0.30;;;9.80;99.90;;;;;;5000179;28;20183;-65
2023/10/31 06:11:03;;;;;;;0.30;0.30;;;9.70;99.90;;;;;;4996997;28;20166;-64
2023/10/31 06:13:31;;;;;;;0.30;0.30;;;9.70;99.90;;;;;;4995100;28;20525;-63
2023/10/31 06:16:00;;;;;;;0.30;0.30;;;9.70;99.90;;;;;;4995662;28;21025;-64
2023/10/31 06:18:26;;;;;;;0.30;0.30;;;9.70;99.90;;;;;;4978912;28;20703;-63
2023/10/31 06:20:52;;;;;;;0.30;0.30;;;9.70;99.90;;;;;;4996217;28;20499;-64
2023/10/31 06:23:18;;;;;;;0.30;0.30;;;9.80;99.90;;;;;;4995627;28;20204;-63
2023/10/31 06:25:43;;;;;;;0.30;0.30;;;9.80;99.90;;;;;;4996154;28;20192;-64
2023/10/31 06:28:09;;;;;;;0.30;0.30;;;9.80;99.90;;;;;;4996689;28;20172;-65
2023/10/31 06:30:35;;;;;;;0.30;0.20;;;9.80;99.90;;;;;;4996560;28;20184;-64
2023/10/31 06:33:01;;;;;;;0.30;0.20;;;9.80;99.90;;;;;;4978685;28;20183;-63
2023/10/31 06:35:27;;;;;;;0.30;0.20;;;9.80;99.90;;;;;;4995786;28;20302;-65
2023/10/31 06:37:56;;;;;;;0.30;0.30;;;9.70;99.90;;;;;;4996257;28;20188;-63
2023/10/31 06:40:21;;;;;;;0.30;0.30;;;9.80;99.90;;;;;;4995995;28;20175;-64
2023/10/31 06:42:47;;;;;;;0.30;0.20;;;9.80;99.90;;;;;;4996267;28;20175;-63
2023/10/31 06:45:12;;;;;;;0.30;0.20;;;9.80;99.90;;;;;;4995294;28;20283;-64
2023/10/31 06:47:38;;;;;;;0.30;0.30;;;9.90;99.90;;;;;;4996179;28;20242;-65
2023/10/31 06:50:04;;;;;;;0.30;0.30;;;9.90;99.90;;;;;;4996063;28;20164;-63
2023/10/31 06:52:30;;;;;;;0.30;0.20;;;10.00;99.90;;;;;;4996076;28;20167;-65
2023/10/31 06:54:55;;;;;;;0.30;0.30;;;10.10;99.90;;;;;;4995218;28;20282;-64
2023/10/31 06:57:21;;;;;;;0.30;0.30;;;10.20;99.90;;;;;;4996046;28;20192;-65
2023/10/31 06:59:46;;;;;;;0.30;0.30;;;10.20;99.90;;;;;;4996026;28;20178;-64
2023/10/31 07:02:13;;;;;;;0.30;0.30;;;10.30;99.90;;;;;;4995818;28;20214;-64
2023/10/31 07:04:39;;;;;;;0.30;0.30;;;10.30;99.90;;;;;;4994726;28;20168;-64
2023/10/31 07:07:05;;;;;;;0.50;0.50;;;10.30;99.90;;;;;;4995221;28;20208;-65
2023/10/31 07:09:30;;;;;;;0.30;0.30;;;10.40;99.90;;;;;;4995646;28;20566;-65
2023/10/31 07:11:57;;;;;;;0.30;0.20;;;10.40;99.90;;;;;;4995675;28;20612;-62
2023/10/31 07:14:23;;;;;;;0.30;0.30;;;10.50;99.90;;;;;;4995239;28;20171;-63
2023/10/31 07:16:48;;;;;;;0.30;0.30;;;10.50;99.90;;;;;;4993931;28;20206;-62
2023/10/31 07:19:14;;;;;;;0.30;0.20;;;10.60;99.90;;;;;;4994923;28;20228;-64
2023/10/31 07:21:40;;;;;;;0.30;0.30;;;10.60;99.90;;;;;;4995381;28;20260;-64
2023/10/31 07:24:08;;;;;;;0.30;0.30;;;10.70;99.90;;;;;;4995257;28;20176;-62
2023/10/31 07:26:34;;;;;;;0.43;0.43;;;10.70;99.90;;;;;;4994602;28;20211;-64
2023/10/31 07:29:00;;;;;;;0.30;0.20;;;10.80;99.90;;;;;;4995078;28;20402;-63
2023/10/31 07:31:25;;;;;;;0.30;0.30;;;10.80;99.90;;;;;;4995126;28;20666;-62
2023/10/31 07:33:51;;;;;;;0.30;0.30;;;10.80;99.90;;;;;;4994985;28;20251;-65
2023/10/31 07:36:17;;;;;;;0.30;0.20;;;10.90;99.90;;;;;;4994665;28;20210;-67
2023/10/31 07:38:42;;;;;;;0.30;0.20;;;11.00;99.90;;;;;;4994734;28;20551;-64
2023/10/31 07:41:08;;;;;;;0.33;0.33;;;11.00;99.90;;;;;;4995149;28;20181;-65
2023/10/31 07:43:34;;;;;;;0.30;0.30;;;11.00;99.90;;;;;;4995076;28;20202;-65
2023/10/31 07:46:00;;;;;;;0.30;0.23;;;11.00;99.90;;;;;;4994528;28;20235;-63
2023/10/31 07:48:25;;;;;;;0.30;0.20;;;11.00;99.90;;;;;;4993412;28;20420;-66
2023/10/31 07:50:51;;;;;;;0.30;0.30;;;11.10;99.90;;;;;;4994882;28;20642;-64
2023/10/31 07:53:17;;;;;;;0.30;0.20;;;11.10;99.90;;;;;;4994941;28;20173;-65
2023/10/31 07:55:43;;;;;;;0.30;0.23;;;11.20;99.90;;;;;;4994085;28;20309;-66
2023/10/31 07:58:09;;;;;;;0.30;0.20;;;11.20;99.90;;;;;;4993470;28;20183;-65
2023/10/31 08:00:35;;;;;;;0.30;0.23;;;11.30;99.90;;;;;;4994574;28;20417;-64
2023/10/31 08:03:01;;;;;;;0.30;0.30;;;11.40;99.90;;;;;;4994495;28;20438;-63
2023/10/31 08:05:27;;;;;;;0.30;0.20;;;11.40;99.90;;;;;;4994157;28;20475;-65
2023/10/31 08:07:53;;;;;;;0.30;0.30;;;11.50;99.90;;;;;;4993884;28;20961;-65
2023/10/31 08:10:18;;;;;;;0.30;0.20;;;11.60;99.90;;;;;;4994225;28;20179;-65
2023/10/31 08:12:44;;;;;;;0.30;0.30;;;11.60;99.90;;;;;;4994443;28;20223;-64
2023/10/31 08:15:10;;;;;;;0.30;0.30;;;11.80;99.90;;;;;;4994149;28;20234;-64
2023/10/31 08:17:36;;;;;;;0.30;0.20;;;11.90;99.90;;;;;;4994310;28;20170;-64
2023/10/31 08:20:05;;;;;;;0.30;0.20;;;12.00;99.90;;;;;;4994194;28;20471;-63
2023/10/31 08:22:30;;;;;;;1.83;0.70;;;12.20;99.90;;;;;;4993987;28;20175;-64
2023/10/31 08:24:56;;;;;;;0.30;0.30;;;12.30;99.90;;;;;;4957225;28;20472;-64
2023/10/31 08:27:22;;;;;;;0.30;0.30;;;12.40;99.90;;;;;;4974853;28;20626;-63
2023/10/31 08:29:47;;;;;;;0.60;0.60;;;12.60;99.90;;;;;;4974653;28;20172;-64
2023/10/31 08:32:13;;;;;;;0.30;0.20;;;12.70;99.90;;;;;;4975043;28;20160;-64
2023/10/31 08:34:39;;;;;;;0.30;0.20;;;12.90;99.90;;;;;;4987793;28;20254;-65
2023/10/31 08:37:04;;;;;;;0.30;0.30;;;13.10;99.90;;;;;;4994266;28;20179;-65
2023/10/31 08:39:30;;;;;;;0.30;0.30;;;13.30;99.90;;;;;;4994043;28;20168;-64
2023/10/31 08:41:57;;;;;;;0.30;0.30;;;13.50;99.90;;;;;;4994007;28;20175;-65
2023/10/31 08:44:23;;;;;;;0.30;0.20;;;13.60;99.90;;;;;;4975707;28;20430;-63
2023/10/31 08:46:49;;;;;;;0.30;0.20;;;13.80;99.90;;;;;;4976482;28;20454;-65
2023/10/31 08:49:16;;;;;;;0.30;0.20;;;14.00;99.90;;;;;;4994354;28;20452;-64
2023/10/31 08:51:42;;;;;;;0.40;0.40;;;14.30;99.90;;;;;;4994091;28;20508;-64
2023/10/31 08:54:09;;;;;;;0.30;0.20;;;14.50;99.90;;;;;;4993029;28;20424;-63
2023/10/31 08:56:35;;;;;;;0.40;0.40;;;14.70;99.90;;;;;;4993899;28;20441;-63
2023/10/31 08:59:01;;;;;;;0.30;0.30;;;15.00;99.90;;;;;;4994527;28;20412;-65
2023/10/31 09:01:28;;;;;;;0.30;0.20;;;15.20;99.90;;;;;;4981047;28;20179;-63
2023/10/31 09:03:55;;;;;;;0.30;0.30;;;15.40;99.90;;;;;;4997742;28;20168;-66
2023/10/31 09:06:20;;;;;;;0.30;0.30;;;15.60;99.90;;;;;;4996848;28;20458;-66
2023/10/31 09:08:46;;;;;;;0.30;0.23;;;15.80;99.90;;;;;;4998051;28;20410;-65
2023/10/31 09:11:12;;;;;;;0.30;0.20;;;16.00;99.90;;;;;;4998136;28;20254;-65
2023/10/31 09:13:37;;;;;;;0.30;0.30;;;16.10;99.90;;;;;;4997926;28;20176;-65
2023/10/31 09:16:03;;;;;;;0.30;0.20;;;16.40;99.90;;;;;;4996232;28;20195;-65
2023/10/31 09:18:29;;;;;;;0.30;0.20;;;16.60;99.90;;;;;;4998206;28;20163;-66
2023/10/31 09:20:55;;;;;;;0.30;0.20;;;16.80;99.90;;;;;;4997514;28;20872;-65
2023/10/31 09:23:20;;;;;;;0.30;0.30;;;16.90;99.90;;;;;;4997347;28;20741;-66
2023/10/31 09:25:46;;;;;;;0.30;0.20;;;17.20;99.90;;;;;;4996580;28;20820;-65
2023/10/31 09:28:12;;;;;;;0.30;0.20;;;17.50;99.90;;;;;;4997276;28;20226;-65
2023/10/31 09:30:37;;;;;;;0.30;0.30;;;17.70;99.90;;;;;;4997091;28;20172;-66
2023/10/31 09:33:03;;;;;;;0.30;0.20;;;17.70;99.90;;;;;;4997328;28;20179;-66
2023/10/31 09:35:29;;;;;;;0.30;0.20;;;17.50;99.90;;;;;;4996975;28;20251;-66
2023/10/31 09:37:55;;;;;;;0.30;0.20;;;17.30;99.90;;;;;;4996797;28;20187;-63
2023/10/31 09:40:21;;;;;;;0.30;0.20;;;17.20;99.90;;;;;;4997441;28;20183;-63
2023/10/31 09:42:49;;;;;;;0.30;0.20;;;17.20;99.90;;;;;;4997411;28;20881;-65
2023/10/31 09:45:15;;;;;;;0.30;0.30;;;17.30;99.90;;;;;;4996913;28;20427;-66
2023/10/31 09:47:44;;;;;;;0.30;0.20;;;17.50;99.90;;;;;;4996450;28;20454;-62
2023/10/31 09:50:11;;;;;;;0.30;0.20;;;17.80;99.90;;;;;;4995898;28;20404;-63
2023/10/31 09:52:38;;;;;;;0.30;0.30;;;17.90;99.90;;;;;;4997192;28;20739;-65
2023/10/31 09:55:05;;;;;;;0.30;0.20;;;17.90;99.90;;;;;;4996892;28;20945;-64
2023/10/31 09:57:31;;;;;;;0.30;0.20;;;17.90;99.90;;;;;;4975670;28;20484;-67
2023/10/31 09:59:56;;;;;;;0.30;0.20;;;17.80;99.90;;;;;;4977442;28;20428;-66
2023/10/31 10:02:22;;;;;;;0.30;0.30;;;17.80;99.90;;;;;;4960056;28;20940;-64
2023/10/31 10:04:49;;;;;;;0.93;0.93;;;17.60;99.90;;;;;;4976964;28;20184;-64
2023/10/31 10:07:19;;;;;;;0.30;0.20;;;17.30;99.90;;;;;;4977210;28;21020;-64
2023/10/31 10:09:46;;;;;;;0.30;0.30;;;17.00;99.90;;;;;;4996917;28;20389;-66
2023/10/31 10:12:12;;;;;;;0.30;0.30;;;16.80;99.90;;;;;;4996304;28;20419;-66
2023/10/31 10:14:44;;;;;;;0.30;0.27;;;16.50;99.90;;;;;;4995875;28;20423;-65
2023/10/31 10:17:23;;;;;;;0.30;0.20;;;16.30;99.90;;;;;;4996736;28;20430;-64
2023/10/31 10:20:10;;;;;;;0.30;0.20;;;16.00;99.90;;;;;;4996600;28;20410;-65
2023/10/31 10:22:45;;;;;;;0.50;0.40;;;15.60;99.90;;;;;;4978981;28;20453;-64
2023/10/31 10:25:16;;;;;;;0.30;0.30;;;15.50;99.90;;;;;;4977556;28;20855;-64
2023/10/31 10:27:42;;;;;;;0.30;0.20;;;15.30;99.90;;;;;;4977035;28;20470;-64
2023/10/31 10:30:09;;;;;;;0.30;0.30;;;15.10;99.90;;;;;;4976693;28;20764;-66
2023/10/31 10:32:35;;;;;;;0.30;0.30;;;14.90;99.90;;;;;;4977015;28;20417;-64
2023/10/31 10:35:00;;;;;;;0.30;0.30;;;14.70;99.90;;;;;;4976774;28;20436;-65
2023/10/31 10:37:30;;;;;;;0.30;0.20;;;14.50;99.90;;;;;;4991734;28;20242;-64
2023/10/31 10:39:56;;;;;;;0.30;0.30;;;14.30;99.90;;;;;;4978900;28;20190;-65
2023/10/31 10:42:43;;;;;;;0.30;0.30;;;14.30;99.90;;;;;;4996366;28;20385;-65
2023/10/31 10:45:11;;;;;;;0.30;0.20;;;14.30;99.90;;;;;;4995891;28;20769;-64
2023/10/31 10:47:37;;;;;;;0.30;0.30;;;14.30;99.90;;;;;;4995158;28;20433;-64
2023/10/31 10:50:07;;;;;;;0.30;0.30;;;14.40;99.90;;;;;;4996022;28;20491;-65
2023/10/31 10:52:38;;;;;;;0.30;0.30;;;14.50;99.90;;;;;;4996337;28;20423;-64
2023/10/31 10:55:12;;;;;;;0.30;0.20;;;14.50;99.90;;;;;;4995688;28;20423;-64
2023/10/31 10:57:47;;;;;;;0.30;0.20;;;14.60;99.90;;;;;;4995513;28;20407;-64
2023/10/31 11:00:14;;;;;;;0.30;0.20;;;14.60;99.90;;;;;;4995904;28;20423;-66
2023/10/31 11:02:44;;;;;;;0.30;0.20;;;14.70;99.90;;;;;;4995803;28;20416;-65
2023/10/31 11:05:10;;;;;;;0.30;0.20;;;14.60;99.90;;;;;;4995355;28;20411;-66
2023/10/31 11:07:37;;;;;;;0.30;0.20;;;14.60;99.90;;;;;;4994397;28;21085;-64
2023/10/31 11:10:04;;;;;;;0.30;0.30;;;14.50;99.90;;;;;;4995851;28;20442;-64
2023/10/31 11:12:30;;;;;;;0.30;0.27;;;14.50;99.90;;;;;;4995718;28;20439;-64
2023/10/31 11:14:58;;;;;;;0.30;0.30;;;14.50;99.90;;;;;;4995381;28;20978;-64
2023/10/31 11:17:27;;;;;;;0.30;0.20;;;14.60;99.90;;;;;;4995407;28;20174;-64
2023/10/31 11:19:55;;;;;;;1.00;0.40;;;14.60;99.90;;;;;;4993920;28;20793;-65
2023/10/31 11:22:21;;;;;;;0.30;0.30;;;14.70;99.90;;;;;;4994827;28;20468;-65
2023/10/31 11:24:49;;;;;;;0.30;0.20;;;14.70;99.90;;;;;;4994790;28;20810;-65
2023/10/31 11:27:16;;;;;;;0.30;0.20;;;14.70;99.90;;;;;;4995286;28;20530;-66
2023/10/31 11:29:42;;;;;;;0.30;0.27;;;14.70;99.90;;;;;;4994869;28;20452;-65
2023/10/31 11:32:11;;;;;;;0.30;0.20;;;14.70;99.90;;;;;;4995383;28;20930;-67
2023/10/31 11:34:41;;;;;;;0.30;0.20;;;14.80;99.90;;;;;;4995079;28;20170;-64
2023/10/31 11:37:34;;;;;;;0.30;0.20;;;14.80;99.90;;;;;;4995173;28;20379;-66
2023/10/31 11:40:22;;;;;;;0.30;0.30;;;14.90;99.90;;;;;;4994060;28;20432;-65
2023/10/31 11:42:54;;;;;;;0.30;0.27;;;14.90;99.90;;;;;;4995336;28;20774;-67
2023/10/31 11:45:30;;;;;;;0.30;0.20;;;15.00;99.90;;;;;;4994751;28;20400;-65
2023/10/31 11:47:56;;;;;;;0.30;0.20;;;15.00;99.90;;;;;;4994839;28;20456;-65
2023/10/31 11:50:22;;;;;;;0.30;0.30;;;15.00;99.90;;;;;;4994234;28;20473;-65
2023/10/31 11:53:11;;;;;;;0.30;0.30;;;14.90;99.90;;;;;;4995060;28;20404;-65
2023/10/31 11:55:43;;;;;;;0.30;0.20;;;14.80;99.90;;;;;;4994481;28;20427;-65
2023/10/31 11:58:27;;;;;;;0.30;0.30;;;14.70;99.90;;;;;;4994934;28;20414;-64
2023/10/31 12:01:04;;;;;;;0.30;0.20;;;14.60;99.90;;;;;;4994023;28;20427;-66
2023/10/31 12:03:51;;;;;;;0.30;0.30;;;14.60;99.90;;;;;;4994879;28;20397;-65
2023/10/31 12:06:17;;;;;;;0.40;0.40;;;14.50;99.90;;;;;;4994413;28;20904;-66
2023/10/31 12:08:43;;;;;;;0.30;0.20;;;14.50;99.90;;;;;;4994541;28;20403;-66
2023/10/31 12:11:13;;;;;;;0.67;0.50;;;14.40;99.90;;;;;;4993856;28;20493;-64
2023/10/31 12:14:01;;;;;;;0.30;0.20;;;14.40;99.90;;;;;;4994657;28;20406;-65
2023/10/31 12:16:29;;;;;;;0.30;0.20;;;14.30;99.90;;;;;;4994423;28;20462;-65
2023/10/31 12:18:56;;;;;;;0.30;0.30;;;14.20;99.90;;;;;;4977284;28;20385;-66
2023/10/31 12:21:49;;;;;;;0.30;0.30;;;14.20;99.90;;;;;;4993838;28;20426;-66
2023/10/31 12:24:17;;;;;;;0.30;0.30;;;14.30;99.90;;;;;;4994210;28;20453;-65
2023/10/31 12:26:44;;;;;;;0.30;0.30;;;14.20;99.90;;;;;;4994138;28;21016;-64
2023/10/31 12:29:18;;;;;;;0.30;0.20;;;14.20;99.90;;;;;;4994166;28;20410;-66
2023/10/31 12:31:53;;;;;;;0.30;0.30;;;14.20;99.90;;;;;;4993575;28;20709;-66
2023/10/31 12:34:21;;;;;;;0.30;0.20;;;14.30;99.90;;;;;;4993937;28;20493;-65
2023/10/31 12:36:49;;;;;;;0.30;0.20;;;14.40;99.90;;;;;;4994128;28;20521;-67
2023/10/31 12:39:16;;;;;;;0.30;0.20;;;14.40;99.90;;;;;;4994278;28;20385;-67
2023/10/31 12:41:43;;;;;;;0.30;0.30;;;14.50;99.90;;;;;;4992778;28;20398;-65
2023/10/31 12:44:12;;;;;;;0.30;0.30;;;14.50;99.90;;;;;;4994031;28;20539;-66
2023/10/31 12:46:42;;;;;;;0.30;0.20;;;14.50;99.90;;;;;;4993883;28;20930;-66
2023/10/31 12:49:18;;;;;;;0.30;0.20;;;14.50;99.90;;;;;;4994127;28;20465;-66
2023/10/31 12:51:57;;;;;;;0.30;0.20;;;14.60;99.90;;;;;;4993827;28;20403;-65
2023/10/31 12:54:36;;;;;;;0.30;0.20;;;14.70;99.90;;;;;;4992770;28;20422;-65
2023/10/31 12:57:04;;;;;;;0.30;0.20;;;14.80;99.90;;;;;;4994118;28;20490;-66
2023/10/31 12:59:30;;;;;;;0.30;0.20;;;14.80;99.90;;;;;;4993963;28;20897;-66
2023/10/31 13:01:56;;;;;;;0.30;0.30;;;14.80;99.90;;;;;;4976502;28;20814;-67
2023/10/31 13:04:29;;;;;;;0.30;0.30;;;14.80;99.90;;;;;;4992774;28;20515;-64
2023/10/31 13:07:05;;;;;;;0.30;0.20;;;14.80;99.90;;;;;;4993752;28;20219;-66
2023/10/31 13:09:35;;;;;;;0.30;0.20;;;14.80;99.90;;;;;;4993843;28;20548;-64
2023/10/31 13:12:05;;;;;;;0.43;0.43;;;14.70;99.90;;;;;;4993603;28;20493;-65
2023/10/31 13:14:31;;;;;;;0.30;0.20;;;14.70;99.90;;;;;;4992766;28;20947;-66
2023/10/31 13:16:58;;;;;;;0.30;0.20;;;14.60;99.90;;;;;;4993781;28;20439;-65
2023/10/31 13:19:23;;;;;;;0.30;0.20;;;14.50;99.90;;;;;;4993691;28;20817;-64
2023/10/31 13:21:49;;;;;;;0.30;0.20;;;14.30;99.90;;;;;;4993694;28;20389;-65
2023/10/31 13:24:15;;;;;;;0.30;0.30;;;14.20;99.90;;;;;;4992370;28;20670;-66
2023/10/31 13:26:41;;;;;;;0.30;0.27;;;14.10;99.90;;;;;;4993742;28;20208;-67
2023/10/31 13:29:07;;;;;;;0.30;0.20;;;14.10;99.90;;;;;;4993647;28;20738;-66
2023/10/31 13:31:32;;;;;;;0.30;0.20;;;14.20;99.90;;;;;;4993227;28;20403;-64
2023/10/31 13:33:58;;;;;;;0.30;0.30;;;14.20;99.90;;;;;;4975455;28;20172;-67
2023/10/31 13:36:24;;;;;;;0.30;0.20;;;14.20;99.90;;;;;;4993148;28;20254;-66
2023/10/31 13:38:50;;;;;;;0.30;0.20;;;14.20;99.90;;;;;;4976207;28;20269;-64
2023/10/31 13:41:15;;;;;;;0.30;0.20;;;14.10;99.90;;;;;;4993875;28;20183;-65
2023/10/31 13:43:41;;;;;;;0.30;0.20;;;14.20;99.90;;;;;;4993547;28;20183;-65
2023/10/31 13:46:06;;;;;;;0.30;0.20;;;14.20;99.90;;;;;;4993180;28;20203;-65
2023/10/31 13:48:32;;;;;;;0.30;0.20;;;14.20;99.90;;;;;;4997238;28;20529;-66
2023/10/31 13:50:58;;;;;;;0.30;0.20;;;14.30;99.90;;;;;;4997212;28;20172;-65
2023/10/31 13:53:23;;;;;;;0.30;0.30;;;14.30;99.90;;;;;;4997173;28;20493;-66
2023/10/31 13:55:49;;;;;;;0.30;0.20;;;14.20;99.90;;;;;;4996122;28;20191;-66
2023/10/31 13:58:15;;;;;;;0.30;0.30;;;14.20;99.90;;;;;;4997206;28;20168;-64
2023/10/31 14:00:43;;;;;;;0.30;0.20;;;14.00;99.90;;;;;;4997077;28;20179;-65
2023/10/31 14:03:09;;;;;;;0.30;0.30;;;13.90;99.90;;;;;;4996793;28;20919;-66
2023/10/31 14:05:35;;;;;;;0.30;0.20;;;13.70;99.90;;;;;;4995802;28;20446;-66
2023/10/31 14:08:00;;;;;;;0.30;0.30;;;13.60;99.90;;;;;;4997036;28;20297;-65
2023/10/31 14:10:26;;;;;;;0.30;0.30;;;13.50;99.90;;;;;;4997139;28;20175;-63
2023/10/31 14:12:52;;;;;;;0.30;0.30;;;13.30;99.90;;;;;;4996948;28;20202;-64
2023/10/31 14:15:18;;;;;;;0.30;0.20;;;13.20;99.90;;;;;;4996304;28;20450;-65
2023/10/31 14:17:44;;;;;;;0.30;0.23;;;13.10;99.90;;;;;;4995459;28;20449;-65
2023/10/31 14:20:10;;;;;;;0.30;0.20;;;13.10;99.90;;;;;;4996670;28;20237;-64
2023/10/31 14:22:36;;;;;;;0.30;0.30;;;13.00;99.90;;;;;;4996708;28;20406;-64
2023/10/31 14:25:04;;;;;;;0.30;0.30;;;12.90;99.90;;;;;;4996121;28;20517;-65
2023/10/31 14:27:29;;;;;;;0.30;0.30;;;12.90;99.90;;;;;;4995198;28;20197;-63
2023/10/31 14:29:55;;;;;;;0.30;0.23;;;12.90;99.90;;;;;;4996588;28;20422;-65
2023/10/31 14:32:21;;;;;;;0.30;0.20;;;12.90;99.90;;;;;;4996395;28;20178;-65
2023/10/31 14:34:47;;;;;;;0.30;0.20;;;12.90;99.90;;;;;;4995944;28;20178;-65
2023/10/31 14:37:12;;;;;;;0.30;0.20;;;12.90;99.90;;;;;;4995679;28;20413;-64
2023/10/31 14:39:38;;;;;;;0.30;0.20;;;12.90;99.90;;;;;;4996335;28;20425;-64
2023/10/31 14:42:04;;;;;;;0.30;0.30;;;12.90;99.90;;;;;;4978962;28;20200;-65
2023/10/31 14:44:29;;;;;;;0.30;0.20;;;12.90;99.90;;;;;;4995876;28;20261;-63
2023/10/31 14:46:55;;;;;;;0.30;0.30;;;13.00;99.90;;;;;;4996048;28;20206;-65
2023/10/31 14:49:21;;;;;;;0.30;0.20;;;13.00;99.90;;;;;;4995159;28;20265;-65
2023/10/31 14:51:47;;;;;;;0.30;0.20;;;13.00;99.90;;;;;;4994689;28;20978;-65
2023/10/31 14:54:12;;;;;;;0.30;0.20;;;12.90;99.90;;;;;;4995303;28;20174;-64
2023/10/31 14:56:38;;;;;;;0.30;0.20;;;12.90;99.90;;;;;;4995188;28;20221;-65
2023/10/31 14:59:04;;;;;;;0.30;0.20;;;12.90;99.90;;;;;;4995121;28;20182;-64
2023/10/31 15:01:29;;;;;;;0.30;0.30;;;12.90;99.90;;;;;;4978291;28;20190;-63
2023/10/31 15:03:55;;;;;;;0.30;0.20;;;12.90;99.90;;;;;;4995621;28;20211;-64
2023/10/31 15:06:21;;;;;;;0.30;0.20;;;12.90;99.90;;;;;;4995437;28;20214;-64
2023/10/31 15:08:47;;;;;;;0.30;0.20;;;12.80;99.90;;;;;;4994795;28;20174;-63
2023/10/31 15:11:13;;;;;;;0.30;0.20;;;12.80;99.90;;;;;;4995569;28;20950;-63
2023/10/31 15:13:39;;;;;;;0.30;0.20;;;12.70;99.90;;;;;;4995758;28;20402;-64
2023/10/31 15:16:05;;;;;;;0.30;0.20;;;12.70;99.90;;;;;;4995359;28;20203;-63
2023/10/31 15:18:30;;;;;;;0.30;0.20;;;12.60;99.90;;;;;;4995548;28;20741;-64
2023/10/31 15:20:57;;;;;;;0.30;0.20;;;12.50;99.90;;;;;;4994376;28;20453;-63
2023/10/31 15:23:25;;;;;;;0.50;0.40;;;12.50;99.90;;;;;;4995692;28;20163;-64
2023/10/31 15:25:52;;;;;;;0.30;0.20;;;12.50;99.90;;;;;;4994961;28;20467;-64
2023/10/31 15:28:17;;;;;;;0.30;0.20;;;12.40;99.90;;;;;;4995784;28;20536;-65
2023/10/31 15:30:43;;;;;;;0.30;0.30;;;12.40;99.90;;;;;;4994668;28;20507;-65
2023/10/31 15:33:09;;;;;;;0.30;0.20;;;12.30;99.90;;;;;;4995203;28;20652;-65
2023/10/31 15:35:34;;;;;;;0.30;0.30;;;12.30;99.90;;;;;;4994756;28;20661;-64
2023/10/31 15:38:00;;;;;;;0.30;0.20;;;12.20;99.90;;;;;;4995515;28;20660;-64
2023/10/31 15:40:26;;;;;;;0.30;0.30;;;12.20;99.90;;;;;;4994108;28;20186;-64
2023/10/31 15:42:51;;;;;;;0.30;0.30;;;12.20;99.90;;;;;;4995168;28;20410;-65
2023/10/31 15:45:17;;;;;;;0.30;0.20;;;12.20;99.90;;;;;;4994949;28;20225;-64
2023/10/31 15:47:43;;;;;;;0.30;0.30;;;12.20;99.90;;;;;;4995109;28;20592;-65
2023/10/31 15:50:09;;;;;;;0.30;0.20;;;12.10;99.90;;;;;;4994837;28;20163;-66
2023/10/31 15:52:36;;;;;;;0.30;0.20;;;12.10;99.90;;;;;;4976038;28;20675;-65
2023/10/31 15:55:02;;;;;;;0.30;0.20;;;12.10;99.90;;;;;;4975267;28;20429;-66
2023/10/31 15:57:28;;;;;;;0.30;0.20;;;12.00;99.90;;;;;;4975760;28;20417;-65
2023/10/31 15:59:53;;;;;;;0.30;0.20;;;12.00;99.90;;;;;;4979145;28;20931;-63
2023/10/31 16:02:19;;;;;;;0.33;0.33;;;12.00;99.90;;;;;;4994182;28;20234;-65
2023/10/31 16:04:44;;;;;;;0.30;0.30;;;12.00;99.90;;;;;;4993617;28;20188;-65
2023/10/31 16:07:12;;;;;;;0.30;0.30;;;12.00;99.90;;;;;;4994406;28;20214;-64
2023/10/31 16:09:38;;;;;;;0.30;0.30;;;11.90;99.90;;;;;;4993935;28;20171;-65
2023/10/31 16:12:05;;;;;;;0.30;0.30;;;11.90;99.90;;;;;;4993826;28;20988;-64
2023/10/31 16:14:33;;;;;;;0.30;0.20;;;11.90;99.90;;;;;;4992704;28;20180;-66
2023/10/31 16:16:59;;;;;;;0.30;0.20;;;11.80;99.90;;;;;;4991891;28;20459;-64
2023/10/31 16:19:25;;;;;;;0.30;0.20;;;11.80;99.90;;;;;;4993781;28;20784;-63
2023/10/31 16:21:50;;;;;;;0.30;0.20;;;11.80;99.90;;;;;;4993577;28;20180;-64
2023/10/31 16:24:17;;;;;;;0.30;0.20;;;11.80;99.90;;;;;;4993504;28;20228;-64
2023/10/31 16:26:43;;;;;;;0.30;0.30;;;11.80;99.90;;;;;;4992018;28;20240;-64
2023/10/31 16:29:13;;;;;;;0.30;0.30;;;11.70;99.90;;;;;;4993360;28;20427;-66
2023/10/31 16:31:39;;;;;;;0.30;0.30;;;11.70;99.90;;;;;;4993186;28;20214;-65
2023/10/31 16:34:06;;;;;;;0.30;0.30;;;11.70;99.90;;;;;;4993565;28;20432;-64
2023/10/31 16:36:32;;;;;;;0.40;0.40;;;11.70;99.90;;;;;;4992919;28;20975;-64
2023/10/31 16:38:58;;;;;;;0.30;0.30;;;11.70;99.90;;;;;;4992129;28;20441;-64
2023/10/31 16:41:24;;;;;;;0.30;0.30;;;11.70;99.90;;;;;;4993760;28;20180;-64
2023/10/31 16:43:50;;;;;;;0.30;0.20;;;11.70;99.90;;;;;;4993232;28;20257;-64
2023/10/31 16:46:16;;;;;;;0.30;0.20;;;11.70;99.90;;;;;;4992843;28;20206;-63
2023/10/31 16:48:45;;;;;;;0.30;0.20;;;11.70;99.90;;;;;;4992666;28;20753;-65
2023/10/31 16:51:18;;;;;;;0.30;0.20;;;11.70;99.90;;;;;;4993065;28;20508;-64